createdAt,value
2022-12-08T00:01:28.119Z,24.25
2022-12-08T00:03:56.404Z,22.35
2022-12-08T00:06:48.072Z,24.00
2022-12-08T00:09:22.116Z,21.98
2022-12-08T00:11:57.151Z,20.92
2022-12-08T00:14:32.910Z,20.85
2022-12-08T00:17:00.884Z,21.55
2022-12-08T00:19:28.260Z,21.20
2022-12-08T00:21:55.851Z,26.42
2022-12-08T00:24:29.510Z,25.88
2022-12-08T00:26:56.059Z,31.90
2022-12-08T00:29:22.624Z,32.65
2022-12-08T00:31:49.921Z,29.42
2022-12-08T00:34:16.938Z,28.40
2022-12-08T00:36:43.863Z,28.75
2022-12-08T00:39:12.206Z,30.20
2022-12-08T00:41:57.743Z,28.15
2022-12-08T00:44:24.641Z,27.15
2022-12-08T00:46:51.288Z,27.25
2022-12-08T00:49:18.196Z,26.52
2022-12-08T00:51:45.368Z,25.05
2022-12-08T00:54:12.314Z,24.20
2022-12-08T00:56:39.154Z,25.23
2022-12-08T00:59:07.166Z,24.15
2022-12-08T01:04:41.053Z,23.23
2022-12-08T01:07:07.931Z,24.42
2022-12-08T01:09:34.651Z,23.15
2022-12-08T01:12:01.598Z,22.98
2022-12-08T01:14:28.488Z,22.67
2022-12-08T01:16:55.185Z,22.45
2022-12-08T01:19:22.768Z,21.02
2022-12-08T01:21:49.368Z,22.55
2022-12-08T01:24:18.970Z,18.00
2022-12-08T01:26:46.418Z,19.17
2022-12-08T01:29:13.414Z,18.27
2022-12-08T01:31:40.111Z,17.38
2022-12-08T01:34:07.441Z,16.42
2022-12-08T01:36:38.840Z,16.95
2022-12-08T01:39:09.310Z,17.13
2022-12-08T01:41:38.053Z,18.00
2022-12-08T01:44:13.915Z,17.88
2022-12-08T01:46:43.079Z,18.13
2022-12-08T01:49:18.949Z,20.40
2022-12-08T01:51:54.718Z,18.52
2022-12-08T01:54:26.007Z,18.50
2022-12-08T01:57:05.565Z,17.98
2022-12-08T01:59:35.409Z,19.92
2022-12-08T02:02:02.198Z,19.88
2022-12-08T02:04:28.980Z,20.17
2022-12-08T02:06:56.262Z,18.77
2022-12-08T02:09:22.894Z,18.90
2022-12-08T02:11:51.199Z,18.65
2022-12-08T02:14:18.506Z,17.90
2022-12-08T02:17:36.142Z,17.83
2022-12-08T02:20:12.045Z,16.48
2022-12-08T02:23:12.977Z,17.02
2022-12-08T02:25:45.659Z,15.75
2022-12-08T02:28:56.528Z,17.13
2022-12-08T02:31:42.202Z,16.27
2022-12-08T02:34:20.905Z,16.13
2022-12-08T02:37:15.491Z,16.23
2022-12-08T02:39:47.911Z,15.75
2022-12-08T02:42:28.041Z,17.17
2022-12-08T02:44:54.533Z,15.93
2022-12-08T02:47:24.995Z,16.20
2022-12-08T02:49:51.658Z,15.98
2022-12-08T02:52:18.190Z,15.50
2022-12-08T02:54:54.046Z,15.32
2022-12-08T02:57:38.703Z,16.42
2022-12-08T03:00:16.758Z,16.50
2022-12-08T03:03:00.542Z,17.25
2022-12-08T03:05:45.320Z,17.88
2022-12-08T03:08:22.711Z,18.40
2022-12-08T03:11:08.373Z,18.58
2022-12-08T03:13:45.824Z,20.27
2022-12-08T03:16:18.163Z,20.63
2022-12-08T03:18:49.725Z,18.08
2022-12-08T03:21:18.983Z,18.92
2022-12-08T03:23:49.123Z,20.90
2022-12-08T03:26:25.198Z,18.25
2022-12-08T03:28:51.881Z,18.17
2022-12-08T03:31:20.015Z,20.67
2022-12-08T03:33:52.336Z,22.05
2022-12-08T03:36:19.744Z,23.40
2022-12-08T03:38:50.521Z,22.20
2022-12-08T03:41:20.184Z,22.10
2022-12-08T03:43:50.750Z,23.55
2022-12-08T03:46:18.565Z,25.65
2022-12-08T03:48:45.378Z,48.28
2022-12-08T03:51:12.143Z,24.33
2022-12-08T03:53:39.026Z,22.50
2022-12-08T03:56:20.530Z,23.38
2022-12-08T03:58:47.301Z,20.67
2022-12-08T04:01:13.888Z,22.40
2022-12-08T04:03:40.638Z,22.48
2022-12-08T04:06:07.587Z,22.95
2022-12-08T04:08:34.378Z,22.45
2022-12-08T04:11:01.056Z,21.40
2022-12-08T04:13:27.741Z,23.70
2022-12-08T04:15:54.375Z,20.90
2022-12-08T04:18:21.470Z,18.05
2022-12-08T04:20:48.114Z,20.65
2022-12-08T04:23:14.757Z,20.60
2022-12-08T04:25:41.950Z,19.13
2022-12-08T04:28:08.646Z,16.70
2022-12-08T04:30:35.456Z,16.33
2022-12-08T04:33:02.968Z,16.30
2022-12-08T04:35:30.010Z,14.18
2022-12-08T04:37:56.784Z,14.02
2022-12-08T04:40:23.916Z,15.23
2022-12-08T04:42:51.247Z,13.13
2022-12-08T04:45:18.094Z,13.77
2022-12-08T04:47:45.255Z,12.80
2022-12-08T04:50:13.141Z,12.70
2022-12-08T04:52:39.774Z,12.32
2022-12-08T04:55:07.134Z,12.50
2022-12-08T04:57:33.977Z,14.55
2022-12-08T05:00:00.564Z,14.13
2022-12-08T05:02:27.357Z,14.45
2022-12-08T05:04:54.501Z,15.18
2022-12-08T05:07:21.796Z,15.18
2022-12-08T05:09:48.511Z,15.20
2022-12-08T05:12:15.173Z,16.67
2022-12-08T05:14:41.722Z,17.27
2022-12-08T05:17:09.822Z,16.17
2022-12-08T05:19:36.795Z,16.67
2022-12-08T05:22:03.436Z,17.50
2022-12-08T05:24:30.359Z,23.35
2022-12-08T05:26:57.376Z,22.85
2022-12-08T05:29:24.007Z,22.17
2022-12-08T05:31:51.299Z,22.15
2022-12-08T05:34:18.119Z,21.98
2022-12-08T05:36:44.820Z,22.05
2022-12-08T05:39:15.804Z,21.75
2022-12-08T05:41:42.446Z,24.95
2022-12-08T05:44:09.286Z,30.85
2022-12-08T05:46:36.886Z,31.70
2022-12-08T05:49:04.551Z,34.90
2022-12-08T05:51:31.440Z,32.03
2022-12-08T05:53:58.441Z,32.22
2022-12-08T05:56:24.997Z,31.75
2022-12-08T05:58:51.738Z,32.03
2022-12-08T06:01:30.850Z,31.70
2022-12-08T06:03:58.939Z,34.67
2022-12-08T06:06:26.188Z,31.65
2022-12-08T06:08:53.385Z,33.38
2022-12-08T06:11:27.417Z,33.63
2022-12-08T06:13:56.548Z,34.65
2022-12-08T06:16:24.439Z,37.20
2022-12-08T06:18:51.154Z,37.65
2022-12-08T06:21:18.490Z,34.38
2022-12-08T06:23:48.720Z,33.90
2022-12-08T06:26:16.547Z,34.92
2022-12-08T06:28:43.806Z,34.63
2022-12-08T06:31:15.669Z,38.60
2022-12-08T06:33:43.166Z,38.63
2022-12-08T06:36:11.691Z,35.33
2022-12-08T06:38:43.125Z,33.70
2022-12-08T06:41:10.803Z,26.23
2022-12-08T06:43:37.917Z,27.15
2022-12-08T06:46:07.811Z,31.58
2022-12-08T06:48:34.624Z,28.10
2022-12-08T06:51:14.450Z,30.65
2022-12-08T06:53:41.628Z,28.88
2022-12-08T06:56:09.104Z,24.08
2022-12-08T06:58:36.143Z,24.67
2022-12-08T07:01:07.911Z,24.95
2022-12-08T07:03:35.092Z,23.65
2022-12-08T07:06:04.089Z,24.75
2022-12-08T07:08:32.019Z,22.38
2022-12-08T07:10:58.702Z,22.48
2022-12-08T07:13:25.455Z,22.40
2022-12-08T07:15:52.361Z,20.83
2022-12-08T07:18:18.990Z,23.58
2022-12-08T07:20:46.047Z,20.70
2022-12-08T07:23:12.765Z,21.55
2022-12-08T07:25:39.401Z,19.58
2022-12-08T07:28:12.832Z,19.88
2022-12-08T07:30:39.787Z,18.92
2022-12-08T07:33:06.727Z,18.85
2022-12-08T07:35:35.156Z,19.05
2022-12-08T07:38:02.638Z,18.52
2022-12-08T07:40:29.294Z,17.63
2022-12-08T07:42:56.220Z,18.60
2022-12-08T07:45:28.220Z,19.27
2022-12-08T07:47:57.983Z,18.50
2022-12-08T07:50:24.646Z,19.55
2022-12-08T07:52:51.229Z,18.95
2022-12-08T07:55:18.280Z,21.90
2022-12-08T07:57:44.850Z,19.13
2022-12-08T08:00:11.990Z,20.85
2022-12-08T08:02:39.548Z,21.52
2022-12-08T08:05:06.885Z,21.48
2022-12-08T08:07:33.672Z,21.70
2022-12-08T08:10:01.483Z,22.83
2022-12-08T08:12:32.582Z,22.10
2022-12-08T08:15:04.098Z,21.92
2022-12-08T08:17:31.036Z,24.02
2022-12-08T08:19:58.080Z,25.15
2022-12-08T08:22:28.563Z,24.55
2022-12-08T08:24:55.403Z,23.02
2022-12-08T08:27:22.588Z,24.42
2022-12-08T08:29:49.827Z,23.27
2022-12-08T08:32:16.913Z,23.55
2022-12-08T08:34:43.512Z,24.70
2022-12-08T08:37:10.574Z,24.83
2022-12-08T08:39:37.239Z,23.95
2022-12-08T08:42:03.906Z,23.42
2022-12-08T08:44:30.543Z,24.08
2022-12-08T08:46:57.203Z,22.40
2022-12-08T08:49:23.801Z,24.40
2022-12-08T08:51:51.051Z,23.50
2022-12-08T08:54:17.635Z,23.90
2022-12-08T08:56:44.245Z,23.52
2022-12-08T08:59:11.617Z,23.67
2022-12-08T09:01:38.498Z,23.63
2022-12-08T09:04:05.299Z,24.15
2022-12-08T09:06:32.757Z,23.75
2022-12-08T09:08:59.407Z,23.65
2022-12-08T09:11:26.076Z,23.17
2022-12-08T09:13:54.406Z,21.90
2022-12-08T09:16:22.277Z,21.70
2022-12-08T09:18:49.675Z,18.55
2022-12-08T09:21:22.543Z,18.10
2022-12-08T09:23:50.859Z,18.63
2022-12-08T09:26:17.719Z,17.60
2022-12-08T09:28:46.773Z,19.70
2022-12-08T09:31:14.573Z,18.80
2022-12-08T09:33:41.580Z,19.02
2022-12-08T09:36:09.778Z,17.30
2022-12-08T09:38:37.197Z,16.83
2022-12-08T09:41:14.315Z,16.92
2022-12-08T09:44:11.311Z,16.38
2022-12-08T09:46:39.343Z,18.95
2022-12-08T09:49:15.188Z,17.85
2022-12-08T09:51:44.332Z,17.17
2022-12-08T09:54:20.397Z,18.35
2022-12-08T09:56:49.399Z,17.75
2022-12-08T09:59:23.481Z,18.10
2022-12-08T10:01:50.618Z,18.95
2022-12-08T10:04:34.974Z,18.13
2022-12-08T10:07:14.118Z,17.45
2022-12-08T10:10:05.878Z,16.73
2022-12-08T10:13:06.642Z,17.35
2022-12-08T10:15:40.602Z,17.25
2022-12-08T10:18:20.069Z,16.30
2022-12-08T10:20:49.253Z,16.90
2022-12-08T10:23:27.772Z,16.15
2022-12-08T10:26:03.723Z,15.18
2022-12-08T10:28:33.215Z,14.85
2022-12-08T10:31:00.196Z,16.17
2022-12-08T10:33:29.480Z,18.75
2022-12-08T10:35:58.779Z,16.45
2022-12-08T10:38:31.156Z,15.18
2022-12-08T10:41:13.566Z,14.10
2022-12-08T10:43:59.787Z,13.05
2022-12-08T10:46:28.958Z,11.63
2022-12-08T10:48:57.028Z,12.05
2022-12-08T10:51:38.005Z,10.88
2022-12-08T10:54:06.215Z,10.63
2022-12-08T10:56:33.426Z,9.45
2022-12-08T10:59:14.994Z,8.30
2022-12-08T11:01:45.288Z,9.00
2022-12-08T11:04:21.708Z,7.88
2022-12-08T11:06:50.571Z,10.25
2022-12-08T11:09:20.574Z,13.65
2022-12-08T11:11:52.378Z,10.18
2022-12-08T11:14:23.879Z,10.70
2022-12-08T11:17:07.899Z,9.02
2022-12-08T11:19:44.471Z,8.95
2022-12-08T11:22:45.037Z,9.05
2022-12-08T11:25:21.138Z,8.38
2022-12-08T11:27:50.001Z,8.10
2022-12-08T11:30:22.393Z,7.57
2022-12-08T11:32:53.480Z,7.75
2022-12-08T11:35:28.445Z,6.97
2022-12-08T11:38:23.076Z,6.65
2022-12-08T11:40:55.371Z,6.82
2022-12-08T11:43:42.417Z,6.93
2022-12-08T11:46:23.269Z,6.40
2022-12-08T11:49:06.014Z,6.72
2022-12-08T11:51:56.884Z,6.22
2022-12-08T11:54:45.517Z,6.28
2022-12-08T11:57:16.566Z,6.05
2022-12-08T11:59:46.565Z,5.10
2022-12-08T12:02:22.211Z,6.07
2022-12-08T12:05:15.341Z,5.72
2022-12-08T12:08:04.228Z,6.57
2022-12-08T12:10:48.771Z,6.18
2022-12-08T12:16:23.369Z,6.72
2022-12-08T12:18:51.926Z,7.40
2022-12-08T12:21:22.871Z,7.00
2022-12-08T12:23:57.368Z,7.40
2022-12-08T12:26:28.313Z,7.90
2022-12-08T12:28:54.991Z,8.05
2022-12-08T12:31:28.000Z,7.03
2022-12-08T12:34:16.894Z,6.60
2022-12-08T12:36:54.117Z,7.45
2022-12-08T12:39:23.825Z,8.88
2022-12-08T12:41:55.042Z,9.23
2022-12-08T12:44:37.508Z,8.25
2022-12-08T12:47:10.795Z,9.98
2022-12-08T12:49:43.984Z,8.90
2022-12-08T12:52:10.523Z,8.02
2022-12-08T12:54:42.865Z,8.25
2022-12-08T12:57:09.993Z,8.80
2022-12-08T12:59:53.243Z,8.85
2022-12-08T13:02:37.013Z,8.98
2022-12-08T13:05:03.912Z,9.65
2022-12-08T13:07:35.924Z,8.75
2022-12-08T13:10:18.366Z,9.32
2022-12-08T13:12:46.277Z,8.55
2022-12-08T13:15:20.560Z,8.15
2022-12-08T13:17:49.243Z,7.63
2022-12-08T13:20:25.947Z,7.45
2022-12-08T13:23:12.532Z,7.53
2022-12-08T13:25:39.598Z,7.60
2022-12-08T13:28:27.721Z,7.65
2022-12-08T13:31:03.028Z,7.93
2022-12-08T13:33:31.390Z,7.82
2022-12-08T13:36:09.979Z,8.18
2022-12-08T13:38:38.769Z,8.55
2022-12-08T13:41:14.004Z,8.13
2022-12-08T13:45:03.462Z,8.18
2022-12-08T13:47:24.783Z,8.73
2022-12-08T13:58:31.892Z,8.02
2022-12-08T14:00:59.122Z,8.80
2022-12-08T14:03:25.970Z,9.52
2022-12-08T14:11:36.813Z,9.60
2022-12-08T14:14:09.591Z,10.45
2022-12-08T14:16:39.817Z,12.90
2022-12-08T14:19:24.746Z,17.33
2022-12-08T14:22:06.725Z,15.80
2022-12-08T14:24:33.446Z,17.45
2022-12-08T14:27:02.878Z,16.30
2022-12-08T14:29:57.975Z,17.70
2022-12-08T14:32:37.731Z,18.48
2022-12-08T14:35:07.758Z,18.35
2022-12-08T14:37:38.770Z,20.02
2022-12-08T14:40:23.008Z,17.92
2022-12-08T14:43:05.185Z,19.00
2022-12-08T14:45:35.573Z,18.40
2022-12-08T14:48:39.531Z,19.40
2022-12-08T14:51:21.776Z,17.80
2022-12-08T14:53:53.584Z,18.45
2022-12-08T14:56:38.023Z,17.70
2022-12-08T14:59:30.315Z,17.52
2022-12-08T15:02:13.437Z,16.85
2022-12-08T15:04:47.600Z,16.08
2022-12-08T15:09:48.898Z,15.88
2022-12-08T15:12:15.517Z,16.80
2022-12-08T15:14:54.393Z,17.23
2022-12-08T15:17:35.208Z,17.45
2022-12-08T15:20:04.839Z,19.17
2022-12-08T15:22:31.754Z,20.52
2022-12-08T15:24:58.626Z,24.95
2022-12-08T15:27:25.895Z,23.83
2022-12-08T15:29:52.829Z,27.48
2022-12-08T15:32:23.625Z,21.30
2022-12-08T15:34:50.350Z,21.95
2022-12-08T15:37:24.737Z,24.67
2022-12-08T15:39:51.726Z,21.40
2022-12-08T15:42:18.580Z,24.80
2022-12-08T15:44:45.336Z,23.33
2022-12-08T15:47:18.274Z,22.67
2022-12-08T15:49:45.877Z,23.55
2022-12-08T15:52:20.504Z,24.10
2022-12-08T15:54:47.151Z,23.55
2022-12-08T15:58:04.494Z,25.08
2022-12-08T16:00:51.385Z,23.88
2022-12-08T16:07:12.409Z,20.98
2022-12-08T16:09:14.084Z,22.40
2022-12-08T16:12:09.121Z,22.70
2022-12-08T16:17:26.914Z,20.30
2022-12-08T16:19:54.065Z,20.77
2022-12-08T16:25:20.753Z,55.22
2022-12-08T16:28:12.324Z,69.43
2022-12-08T16:30:42.760Z,65.85
2022-12-08T16:33:11.588Z,72.25
2022-12-08T16:35:38.621Z,66.10
2022-12-08T16:38:05.481Z,61.00
2022-12-08T16:40:32.044Z,63.88
2022-12-08T16:42:58.592Z,56.03
2022-12-08T16:45:29.024Z,48.75
2022-12-08T16:47:58.328Z,52.17
2022-12-08T16:50:29.784Z,48.25
2022-12-08T16:52:58.800Z,35.53
2022-12-08T16:55:26.294Z,45.17
2022-12-08T16:57:53.293Z,42.45
2022-12-08T17:00:25.038Z,36.88
2022-12-08T17:02:52.048Z,31.65
2022-12-08T17:05:21.814Z,29.20
2022-12-08T17:07:50.673Z,30.05
2022-12-08T17:10:20.239Z,29.33
2022-12-08T17:12:47.429Z,28.02
2022-12-08T17:15:18.481Z,25.80
2022-12-08T17:17:45.124Z,24.60
2022-12-08T17:20:15.095Z,25.42
2022-12-08T17:22:41.960Z,25.58
2022-12-08T17:25:09.038Z,25.38
2022-12-08T17:27:36.600Z,22.83
2022-12-08T17:30:04.826Z,23.17
2022-12-08T17:32:31.800Z,24.85
2022-12-08T17:34:58.636Z,23.55
2022-12-08T17:37:25.240Z,24.30
2022-12-08T17:39:52.042Z,23.70
2022-12-08T17:42:18.889Z,22.65
2022-12-08T17:44:46.681Z,21.95
2022-12-08T17:47:13.316Z,23.15
2022-12-08T17:49:40.511Z,22.50
2022-12-08T17:52:07.196Z,23.25
2022-12-08T17:54:34.124Z,40.90
2022-12-08T17:57:01.196Z,36.55
2022-12-08T17:59:29.302Z,23.55
2022-12-08T18:01:57.344Z,30.33
2022-12-08T18:04:24.782Z,42.90
2022-12-08T18:06:51.607Z,55.58
2022-12-08T18:09:18.322Z,43.63
2022-12-08T18:11:46.444Z,42.10
2022-12-08T18:14:14.252Z,45.63
2022-12-08T18:16:46.200Z,33.35
2022-12-08T18:19:14.300Z,37.80
2022-12-08T18:21:41.593Z,39.13
2022-12-08T18:24:13.372Z,38.53
2022-12-08T18:26:40.300Z,47.88
2022-12-08T18:29:06.874Z,58.08
2022-12-08T18:31:33.472Z,60.22
2022-12-08T18:34:00.152Z,58.05
2022-12-08T18:36:26.991Z,44.28
2022-12-08T18:38:53.695Z,49.13
2022-12-08T18:41:25.012Z,47.33
2022-12-08T18:43:55.744Z,47.00
2022-12-08T18:46:23.874Z,37.75
2022-12-08T18:48:51.748Z,37.72
2022-12-08T18:51:21.045Z,40.00
2022-12-08T18:53:48.525Z,35.10
2022-12-08T18:56:22.319Z,36.75
2022-12-08T18:58:48.987Z,36.38
2022-12-08T19:01:15.740Z,34.97
2022-12-08T19:03:52.742Z,45.33
2022-12-08T19:06:30.114Z,57.35
2022-12-08T19:08:57.225Z,50.75
2022-12-08T19:11:26.353Z,48.30
2022-12-08T19:13:54.347Z,50.15
2022-12-08T19:16:22.184Z,46.95
2022-12-08T19:18:48.816Z,46.80
2022-12-08T19:21:15.503Z,40.13
2022-12-08T19:23:42.638Z,42.75
2022-12-08T19:26:12.104Z,51.25
2022-12-08T19:28:41.055Z,40.17
2022-12-08T19:31:09.690Z,35.92
2022-12-08T19:33:37.607Z,35.30
2022-12-08T19:36:09.566Z,40.13
2022-12-08T19:38:56.681Z,41.65
2022-12-08T19:41:43.123Z,37.08
2022-12-08T19:44:43.228Z,34.03
2022-12-08T19:47:10.245Z,45.55
2022-12-08T19:49:37.313Z,74.72
2022-12-08T19:52:04.649Z,64.15
2022-12-08T19:54:31.551Z,48.40
2022-12-08T19:56:58.243Z,55.47
2022-12-08T19:59:30.130Z,45.85
2022-12-08T20:02:00.276Z,46.72
2022-12-08T20:04:27.547Z,38.38
2022-12-08T20:06:55.830Z,38.53
2022-12-08T20:09:23.876Z,38.58
2022-12-08T20:11:51.012Z,40.88
2022-12-08T20:14:18.638Z,40.50
2022-12-08T20:16:45.596Z,37.92
2022-12-08T20:19:12.234Z,36.75
2022-12-08T20:21:40.095Z,36.30
2022-12-08T20:24:07.399Z,36.03
2022-12-08T20:26:34.059Z,35.33
2022-12-08T20:29:00.724Z,37.45
2022-12-08T20:31:30.977Z,36.55
2022-12-08T20:33:57.775Z,37.42
2022-12-08T20:36:24.676Z,39.40
2022-12-08T20:38:53.177Z,49.30
2022-12-08T20:41:20.657Z,49.80
2022-12-08T20:43:48.002Z,51.05
2022-12-08T20:46:17.357Z,52.45
2022-12-08T20:48:44.343Z,51.45
2022-12-08T20:51:17.465Z,53.63
2022-12-08T20:53:44.748Z,57.00
2022-12-08T20:56:19.950Z,57.08
2022-12-08T20:58:47.128Z,55.00
2022-12-08T21:01:17.874Z,56.15
2022-12-08T21:03:46.422Z,55.28
2022-12-08T21:06:14.109Z,64.72
2022-12-08T21:08:42.213Z,64.35
2022-12-08T21:11:10.011Z,68.32
2022-12-08T21:13:37.944Z,69.25
2022-12-08T21:16:05.562Z,68.10
2022-12-08T21:18:38.939Z,62.25
2022-12-08T21:21:09.203Z,67.20
2022-12-08T21:23:36.269Z,70.20
2022-12-08T21:26:03.211Z,69.10
2022-12-08T21:28:30.092Z,64.88
2022-12-08T21:30:56.885Z,62.80
2022-12-08T21:33:24.247Z,62.90
2022-12-08T21:35:51.382Z,56.30
2022-12-08T21:38:18.173Z,53.38
2022-12-08T21:40:44.887Z,54.47
2022-12-08T21:43:13.693Z,50.30
2022-12-08T21:45:40.611Z,49.15
2022-12-08T21:48:11.194Z,49.70
2022-12-08T21:50:38.729Z,50.65
2022-12-08T21:53:05.883Z,45.67
2022-12-08T21:55:32.619Z,48.90
2022-12-08T21:58:01.079Z,47.15
2022-12-08T22:00:28.095Z,45.45
2022-12-08T22:02:55.117Z,48.10
2022-12-08T22:05:22.113Z,46.60
2022-12-08T22:07:48.954Z,44.53
2022-12-08T22:10:16.076Z,44.53
2022-12-08T22:12:43.240Z,46.30
2022-12-08T22:15:11.384Z,47.30
2022-12-08T22:17:43.458Z,46.92
2022-12-08T22:20:13.736Z,47.13
2022-12-08T22:22:40.889Z,46.95
2022-12-08T22:25:11.926Z,46.92
2022-12-08T22:27:40.628Z,48.03
2022-12-08T22:30:08.681Z,45.15
2022-12-08T22:32:35.967Z,43.05
2022-12-08T22:35:03.221Z,43.33
2022-12-08T22:37:29.831Z,42.05
2022-12-08T22:39:56.408Z,44.70
2022-12-08T22:42:23.339Z,42.85
2022-12-08T22:44:50.045Z,43.72
2022-12-08T22:47:16.635Z,45.45
2022-12-08T22:49:43.634Z,43.83
2022-12-08T22:52:10.273Z,41.85
2022-12-08T22:54:36.854Z,41.85
2022-12-08T22:57:04.026Z,40.50
2022-12-08T22:59:33.335Z,38.25
2022-12-08T23:02:00.000Z,36.88
2022-12-08T23:04:27.234Z,35.35
2022-12-08T23:06:54.045Z,44.17
2022-12-08T23:09:21.394Z,47.88
2022-12-08T23:11:48.456Z,51.42
2022-12-08T23:14:15.618Z,49.50
2022-12-08T23:16:42.536Z,48.95
2022-12-08T23:19:09.951Z,40.35
2022-12-08T23:21:36.604Z,38.63
2022-12-08T23:24:04.075Z,32.85
2022-12-08T23:26:32.772Z,39.72
2022-12-08T23:28:59.705Z,46.65
2022-12-08T23:31:27.255Z,53.33
2022-12-08T23:33:54.935Z,51.92
2022-12-08T23:36:25.028Z,52.97
2022-12-08T23:38:52.015Z,52.00
2022-12-08T23:41:18.960Z,46.78
2022-12-08T23:43:47.938Z,46.85
2022-12-08T23:46:16.968Z,41.85
2022-12-08T23:48:44.270Z,38.45
2022-12-08T23:51:11.259Z,39.67
2022-12-08T23:53:38.211Z,37.83
2022-12-08T23:56:08.194Z,34.40
2022-12-08T23:58:36.158Z,24.02
